Fraser Lake, Canada
Current Conditions -  °F | °C
As of 2:25 AM on Sunday 26 Oct 2014 (Local Time) from CYXS Reporting Station
Light Snow Light Snow  
Wind Chill: 29°   Ceiling: 600
Heat Index: 34°   Visibility: 3mi
Dew Point: 32°   Wind: 6mph
Humidity: 93%   Direction: 310°NW
Pressure: 29.47"   Gusts: NA
Location:  54.05°N, 124.78°W
Report Text: CYXS 260925Z AUTO 31005KT 3SM -SN OVC006 01/00 A2947 RMK SLP006
Loading
Personal Weather Stations






























Interactive Weather Map
Tropical Storm Tracking
New forecast layout! Learn more

10-Day Weather Forecast

Advertisements
Track Severe Weather on mobile